createdAt,value
2019-02-28T00:02:30.696Z,6.79
2019-02-28T00:07:34.105Z,6.81
2019-02-28T00:12:37.538Z,6.80
2019-02-28T00:17:43.596Z,6.75
2019-02-28T00:22:49.279Z,6.68
2019-02-28T00:27:52.682Z,6.53
2019-02-28T00:32:59.335Z,6.56
2019-02-28T00:38:01.586Z,6.49
2019-02-28T00:43:05.121Z,6.55
2019-02-28T00:48:08.550Z,6.52
2019-02-28T00:53:11.989Z,6.48
2019-02-28T00:58:15.416Z,6.40
2019-02-28T01:03:18.834Z,6.38
2019-02-28T01:08:22.816Z,6.36
2019-02-28T01:13:28.099Z,6.32
2019-02-28T01:18:34.472Z,6.33
2019-02-28T01:23:36.858Z,6.33
2019-02-28T01:28:40.284Z,6.25
2019-02-28T01:33:43.709Z,6.18
2019-02-28T01:38:47.146Z,6.17
2019-02-28T01:43:50.569Z,6.20
2019-02-28T01:48:54.522Z,6.14
2019-02-28T01:53:58.478Z,6.06
2019-02-28T01:59:01.924Z,6.09
2019-02-28T02:04:05.406Z,6.06
2019-02-28T02:09:11.083Z,6.12
2019-02-28T02:14:13.966Z,6.13
2019-02-28T02:19:18.491Z,6.13
2019-02-28T02:24:24.391Z,6.15
2019-02-28T02:29:27.990Z,6.19
2019-02-28T02:34:31.527Z,6.13
2019-02-28T02:39:34.964Z,6.12
2019-02-28T02:44:38.393Z,6.09
2019-02-28T02:49:41.851Z,6.05
2019-02-28T02:54:45.282Z,6.00
2019-02-28T02:59:48.694Z,5.94
2019-02-28T03:04:57.966Z,5.93
2019-02-28T03:09:57.277Z,5.89
2019-02-28T03:15:00.706Z,5.82
2019-02-28T03:20:07.543Z,5.74
2019-02-28T03:25:13.587Z,5.69
2019-02-28T03:30:27.695Z,5.69
2019-02-28T03:35:24.567Z,5.56
2019-02-28T03:40:27.989Z,5.49
2019-02-28T03:45:35.178Z,5.47
2019-02-28T03:50:36.616Z,5.47
2019-02-28T03:55:41.532Z,5.43
2019-02-28T04:00:45.199Z,5.34
2019-02-28T04:05:48.616Z,5.28
2019-02-28T04:10:54.793Z,5.19
2019-02-28T04:16:08.518Z,5.15
2019-02-28T04:21:02.359Z,5.17
2019-02-28T04:26:05.807Z,5.16
2019-02-28T04:31:09.236Z,5.22
2019-02-28T04:36:12.657Z,5.27
2019-02-28T04:41:16.087Z,5.36
2019-02-28T04:46:19.545Z,5.39
2019-02-28T04:51:22.963Z,5.35
2019-02-28T04:56:26.418Z,5.29
2019-02-28T05:01:29.842Z,5.24
2019-02-28T05:06:33.274Z,5.21
2019-02-28T05:11:36.709Z,5.19
2019-02-28T05:16:40.135Z,5.17
2019-02-28T05:21:43.550Z,5.09
2019-02-28T05:26:46.974Z,5.06
2019-02-28T05:31:50.394Z,5.06
2019-02-28T05:36:53.836Z,5.03
2019-02-28T05:41:57.322Z,5.06
2019-02-28T05:47:00.717Z,5.09
2019-02-28T05:52:04.134Z,5.11
2019-02-28T05:57:08.227Z,5.24
2019-02-28T06:02:12.450Z,5.35
2019-02-28T06:07:15.968Z,5.40
2019-02-28T06:12:19.402Z,5.41
2019-02-28T06:17:23.593Z,5.40
2019-02-28T06:22:27.012Z,5.38
2019-02-28T06:27:30.431Z,5.50
2019-02-28T06:32:33.887Z,5.55
2019-02-28T06:37:38.280Z,5.62
2019-02-28T06:42:43.565Z,5.76
2019-02-28T06:47:49.519Z,5.88
2019-02-28T06:52:52.922Z,6.07
2019-02-28T06:57:58.965Z,6.20
2019-02-28T07:03:03.340Z,6.26
2019-02-28T07:08:06.670Z,6.26
2019-02-28T07:13:11.858Z,6.29
2019-02-28T07:18:18.869Z,6.24
2019-02-28T07:23:22.205Z,6.18
2019-02-28T07:28:25.740Z,6.15
2019-02-28T07:33:29.174Z,6.13
2019-02-28T07:38:32.602Z,6.18
2019-02-28T07:43:36.031Z,6.24
2019-02-28T07:48:39.468Z,6.32
2019-02-28T07:53:42.885Z,6.41
2019-02-28T07:58:46.316Z,6.51
2019-02-28T08:03:49.758Z,6.69
2019-02-28T08:08:53.282Z,6.89
2019-02-28T08:13:56.726Z,7.10
2019-02-28T08:19:00.151Z,7.25
2019-02-28T08:24:05.532Z,7.43
2019-02-28T08:29:11.603Z,7.63
2019-02-28T08:34:14.037Z,7.83
2019-02-28T08:39:17.867Z,8.02
2019-02-28T08:44:23.836Z,8.32
2019-02-28T08:49:26.417Z,8.56
2019-02-28T08:54:29.833Z,8.75
2019-02-28T08:59:33.275Z,9.03
2019-02-28T09:04:41.217Z,9.18
2019-02-28T09:09:41.888Z,9.41
2019-02-28T09:14:45.323Z,9.46
2019-02-28T09:19:48.762Z,9.90
2019-02-28T09:24:52.222Z,10.22
2019-02-28T09:29:55.675Z,10.53
2019-02-28T09:34:59.083Z,10.72
2019-02-28T09:40:02.520Z,11.13
2019-02-28T09:45:09.086Z,11.16
2019-02-28T09:50:15.312Z,11.58
2019-02-28T09:55:18.821Z,11.80
2019-02-28T10:00:23.607Z,12.22
2019-02-28T10:05:27.077Z,12.50
2019-02-28T10:10:32.281Z,12.81
2019-02-28T10:15:38.753Z,13.20
2019-02-28T10:20:41.584Z,13.46
2019-02-28T10:25:45.795Z,13.37
2019-02-28T10:30:50.116Z,13.21
2019-02-28T10:35:54.403Z,13.13
2019-02-28T10:40:57.845Z,13.30
2019-02-28T10:46:01.269Z,13.63
2019-02-28T10:51:12.906Z,13.93
2019-02-28T10:56:10.495Z,14.20
2019-02-28T11:01:14.212Z,14.82
2019-02-28T11:06:17.656Z,14.98
2019-02-28T11:11:21.244Z,15.25
2019-02-28T11:16:24.715Z,15.12
2019-02-28T11:21:29.884Z,14.59
2019-02-28T11:26:34.023Z,14.74
2019-02-28T11:31:37.464Z,14.92
2019-02-28T11:36:40.919Z,15.27
2019-02-28T11:41:44.391Z,15.40
2019-02-28T11:46:47.977Z,15.51
2019-02-28T11:51:53.045Z,15.50
2019-02-28T11:56:56.573Z,15.27
2019-02-28T12:02:00.073Z,15.51
2019-02-28T12:07:03.488Z,15.37
2019-02-28T12:12:07.327Z,15.31
2019-02-28T12:17:12.251Z,15.64
2019-02-28T12:22:15.675Z,16.35
2019-02-28T12:27:19.191Z,16.64
2019-02-28T12:32:22.715Z,16.55
2019-02-28T12:37:26.191Z,16.05
2019-02-28T12:42:31.615Z,16.29
2019-02-28T12:47:34.876Z,16.28
2019-02-28T12:52:38.330Z,15.74
2019-02-28T12:57:41.859Z,15.37
2019-02-28T13:02:47.117Z,15.24
2019-02-28T13:07:50.852Z,15.25
2019-02-28T13:13:05.232Z,15.29
2019-02-28T13:17:59.474Z,15.42
2019-02-28T13:23:02.937Z,15.52
2019-02-28T13:28:07.955Z,15.67
2019-02-28T13:33:14.965Z,16.04
2019-02-28T13:38:19.141Z,16.43
2019-02-28T13:43:22.846Z,16.53
2019-02-28T13:48:32.997Z,16.96
2019-02-28T13:53:31.949Z,17.18
2019-02-28T13:58:35.493Z,17.37
2019-02-28T14:03:42.265Z,17.58
2019-02-28T14:08:46.236Z,17.68
2019-02-28T14:13:49.432Z,17.64
2019-02-28T14:18:54.639Z,17.31
2019-02-28T14:23:59.124Z,17.07
2019-02-28T14:29:02.837Z,16.88
2019-02-28T14:34:06.479Z,16.65
2019-02-28T14:39:11.589Z,16.67
2019-02-28T14:44:15.182Z,16.51
2019-02-28T14:49:20.346Z,16.27
2019-02-28T14:54:24.700Z,16.33
2019-02-28T14:59:31.236Z,16.19
2019-02-28T15:04:34.088Z,15.91
2019-02-28T15:09:37.541Z,15.58
2019-02-28T15:14:43.225Z,15.61
2019-02-28T15:19:46.283Z,15.47
2019-02-28T15:24:49.982Z,15.37
2019-02-28T15:29:55.499Z,15.17
2019-02-28T15:34:58.782Z,15.22
2019-02-28T15:40:02.283Z,15.19
2019-02-28T15:45:07.859Z,15.07
2019-02-28T15:50:16.324Z,15.03
2019-02-28T15:55:19.893Z,14.97
2019-02-28T16:00:25.955Z,14.96
2019-02-28T16:05:29.511Z,14.81
2019-02-28T16:10:35.055Z,14.51
2019-02-28T16:15:38.536Z,14.45
2019-02-28T16:20:41.986Z,14.31
2019-02-28T16:25:46.802Z,14.28
2019-02-28T16:30:50.777Z,14.27
2019-02-28T16:35:54.230Z,14.12
2019-02-28T16:41:00.730Z,13.86
2019-02-28T16:46:02.837Z,13.51
2019-02-28T16:51:06.271Z,13.23
2019-02-28T16:56:09.849Z,13.20
2019-02-28T17:01:13.350Z,13.04
2019-02-28T17:06:16.980Z,12.94
2019-02-28T17:11:20.429Z,12.95
2019-02-28T17:16:25.674Z,12.76
2019-02-28T17:21:29.154Z,12.70
2019-02-28T17:26:42.847Z,12.66
2019-02-28T17:31:49.326Z,12.63
2019-02-28T17:36:52.884Z,12.50
2019-02-28T17:41:56.307Z,12.47
2019-02-28T17:47:29.468Z,12.40
2019-02-28T17:52:41.627Z,12.38
2019-02-28T17:57:48.729Z,12.32
2019-02-28T18:03:17.723Z,12.18
2019-02-28T18:08:37.482Z,12.20
2019-02-28T18:13:55.267Z,12.24
2019-02-28T18:19:21.472Z,12.20
2019-02-28T18:24:34.716Z,12.05
2019-02-28T18:29:58.205Z,12.06
2019-02-28T18:35:01.630Z,12.05
2019-02-28T18:40:07.390Z,12.04
2019-02-28T18:45:12.183Z,12.03
2019-02-28T18:50:15.664Z,11.99
2019-02-28T18:55:19.068Z,11.99
2019-02-28T19:00:23.127Z,11.97
2019-02-28T19:05:27.490Z,11.96
2019-02-28T19:10:30.994Z,11.87
2019-02-28T19:15:34.507Z,11.84
2019-02-28T19:20:37.915Z,11.87
2019-02-28T19:25:41.464Z,11.81
2019-02-28T19:30:44.998Z,11.70
2019-02-28T19:35:48.468Z,11.63
2019-02-28T19:40:51.909Z,11.67
2019-02-28T19:45:56.292Z,11.66
2019-02-28T19:50:59.775Z,11.64
2019-02-28T19:56:03.205Z,11.66
2019-02-28T20:01:06.748Z,11.62
2019-02-28T20:06:10.201Z,11.60
2019-02-28T20:11:13.656Z,11.52
2019-02-28T20:16:17.275Z,11.57
2019-02-28T20:21:20.684Z,11.56
2019-02-28T20:26:24.177Z,11.58
2019-02-28T20:31:27.840Z,11.55
2019-02-28T20:36:31.359Z,11.54
2019-02-28T20:41:34.749Z,11.61
2019-02-28T20:46:38.283Z,11.60
2019-02-28T20:51:41.698Z,11.55
2019-02-28T20:56:45.139Z,11.54
2019-02-28T21:01:48.545Z,11.55
2019-02-28T21:06:51.965Z,11.52
2019-02-28T21:11:55.406Z,11.53
2019-02-28T21:16:59.059Z,11.47
2019-02-28T21:22:02.477Z,11.38
2019-02-28T21:27:06.254Z,11.38
2019-02-28T21:32:09.682Z,11.40
2019-02-28T21:37:13.145Z,11.36
2019-02-28T21:42:16.642Z,11.37
2019-02-28T21:47:20.048Z,11.31
2019-02-28T21:52:23.497Z,11.32
2019-02-28T21:57:26.919Z,11.23
2019-02-28T22:02:30.337Z,11.25
2019-02-28T22:07:33.802Z,11.24
2019-02-28T22:12:37.258Z,11.25
2019-02-28T22:17:40.703Z,11.23
2019-02-28T22:22:44.198Z,11.20
2019-02-28T22:27:47.628Z,11.16
2019-02-28T22:32:52.710Z,11.13
2019-02-28T22:37:56.148Z,11.12
2019-02-28T22:42:59.590Z,11.05
2019-02-28T22:48:03.084Z,11.04
2019-02-28T22:53:06.588Z,10.97
2019-02-28T22:58:13.216Z,10.89
2019-02-28T23:03:16.615Z,10.86
2019-02-28T23:08:20.116Z,10.82
2019-02-28T23:13:23.580Z,10.75
2019-02-28T23:18:27.020Z,10.70
2019-02-28T23:23:30.440Z,10.68
2019-02-28T23:28:36.824Z,10.63
2019-02-28T23:33:40.264Z,10.59
2019-02-28T23:38:43.714Z,10.49
2019-02-28T23:43:47.157Z,10.51
2019-02-28T23:48:50.613Z,10.46
2019-02-28T23:53:54.041Z,10.43
2019-02-28T23:58:57.472Z,10.45
